Time;durP1;ratioP1;P1;durP2;ratioP2;P2;SDS_P1;SDS_P2;PMS_P1;PMS_P2;Temp;Humidity;BMP_temperature;BMP_pressure;BME280_temperature;BME280_humidity;BME280_pressure;Samples;Min_cycle;Max_cycle;Signal;HPM_P1;HPM_P2
2024/01/24 00:01:07;;;;;;;62.25;13.52;;;;;;;;;;4995471;28;98597;-69
2024/01/24 00:03:34;;;;;;;5.22;1.20;;;;;;;;;;5001009;28;100309;-69
2024/01/24 00:06:00;;;;;;;4.32;1.20;;;;;;;;;;4999126;28;100871;-70
2024/01/24 00:08:27;;;;;;;5.60;1.50;;;;;;;;;;5000049;28;98719;-69
2024/01/24 00:10:54;;;;;;;8.15;1.48;;;;;;;;;;4997583;28;99323;-69
2024/01/24 00:13:20;;;;;;;53.03;12.40;;;;;;;;;;4999794;28;99658;-69
2024/01/24 00:15:46;;;;;;;3.58;1.05;;;;;;;;;;4996427;28;98681;-70
2024/01/24 00:18:13;;;;;;;1.95;0.82;;;;;;;;;;4999130;28;99213;-70
2024/01/24 00:20:40;;;;;;;21.77;6.93;;;;;;;;;;5001563;28;99900;-69
2024/01/24 00:23:45;;;;;;;4.38;1.40;;;;;;;;;;5045133;27;86372;-69
2024/01/24 00:26:12;;;;;;;3.15;1.10;;;;;;;;;;5046074;27;86880;-69
2024/01/24 00:28:38;;;;;;;3.05;1.35;;;;;;;;;;5038653;27;87474;-69
2024/01/24 00:31:05;;;;;;;2.95;1.33;;;;;;;;;;5048607;27;87635;-67
2024/01/24 00:33:32;;;;;;;7.43;3.70;;;;;;;;;;5042209;27;88917;-69
2024/01/24 00:35:58;;;;;;;65.95;23.15;;;;;;;;;;5043129;27;87241;-69
2024/01/24 00:38:25;;;;;;;1.48;1.05;;;;;;;;;;5041336;27;88867;-70
2024/01/24 00:40:51;;;;;;;2.63;1.33;;;;;;;;;;5045266;27;89988;-68
2024/01/24 00:43:17;;;;;;;4.07;1.30;;;;;;;;;;5042736;27;87748;-69
2024/01/24 00:45:44;;;;;;;2.88;1.30;;;;;;;;;;5041549;27;88150;-69
2024/01/24 00:48:10;;;;;;;4.85;1.50;;;;;;;;;;5045335;27;87542;-68
2024/01/24 00:50:37;;;;;;;3.55;1.88;;;;;;;;;;5042661;27;87836;-68
2024/01/24 00:53:03;;;;;;;2.90;1.42;;;;;;;;;;5043633;27;87893;-69
2024/01/24 00:55:30;;;;;;;33.40;7.93;;;;;;;;;;5041781;27;87566;-69
2024/01/24 00:57:58;;;;;;;4.20;1.95;;;;;;;;;;5043260;27;87864;-69
2024/01/24 01:00:24;;;;;;;3.17;1.52;;;;;;;;;;5039138;27;87858;-69
2024/01/24 01:02:51;;;;;;;2.38;2.13;;;;;;;;;;5040841;27;87227;-68
2024/01/24 01:05:17;;;;;;;8.43;1.60;;;;;;;;;;5047974;27;87718;-69
2024/01/24 01:07:44;;;;;;;1.83;1.20;;;;;;;;;;5023143;27;87296;-69
2024/01/24 01:10:10;;;;;;;27.80;9.38;;;;;;;;;;5015085;28;86816;-69
2024/01/24 01:12:37;;;;;;;5.07;1.65;;;;;;;;;;5016892;28;87679;-68
2024/01/24 01:15:03;;;;;;;3.20;1.92;;;;;;;;;;5024980;28;87377;-69
2024/01/24 01:17:30;;;;;;;1.30;1.20;;;;;;;;;;5022043;28;87417;-69
2024/01/24 01:19:56;;;;;;;3.20;1.13;;;;;;;;;;5021052;28;88183;-68
2024/01/24 01:22:22;;;;;;;3.50;1.20;;;;;;;;;;5020243;28;87457;-69
2024/01/24 01:24:49;;;;;;;2.30;1.17;;;;;;;;;;5020825;28;88483;-69
2024/01/24 01:27:15;;;;;;;1.35;1.20;;;;;;;;;;5014131;28;88726;-69
2024/01/24 01:29:42;;;;;;;4.38;1.10;;;;;;;;;;5018455;28;86808;-71
2024/01/24 01:32:08;;;;;;;1.98;0.98;;;;;;;;;;5017385;27;87803;-69
2024/01/24 01:34:34;;;;;;;0.85;0.82;;;;;;;;;;5012625;28;87671;-68
2024/01/24 01:37:01;;;;;;;6.30;0.90;;;;;;;;;;5008723;28;87582;-68
2024/01/24 01:39:28;;;;;;;1.35;0.90;;;;;;;;;;5009190;28;88422;-68
2024/01/24 01:41:54;;;;;;;0.93;0.85;;;;;;;;;;5007603;28;87849;-68
2024/01/24 01:44:21;;;;;;;0.82;0.82;;;;;;;;;;5008098;28;87557;-68
2024/01/24 01:46:48;;;;;;;5.10;1.20;;;;;;;;;;5007673;28;87336;-68
2024/01/24 01:49:14;;;;;;;1.77;0.90;;;;;;;;;;5013214;28;87298;-68
2024/01/24 01:51:41;;;;;;;27.88;10.63;;;;;;;;;;5005676;28;87811;-68
2024/01/24 01:54:08;;;;;;;1.48;1.10;;;;;;;;;;5005370;28;89731;-70
2024/01/24 01:56:35;;;;;;;0.90;0.90;;;;;;;;;;4995759;28;87572;-69
2024/01/24 01:59:02;;;;;;;60.35;14.15;;;;;;;;;;5009698;28;88106;-69
2024/01/24 02:01:28;;;;;;;1.95;1.15;;;;;;;;;;5002932;28;88926;-69
2024/01/24 02:03:55;;;;;;;92.18;21.27;;;;;;;;;;5008612;28;87523;-69
2024/01/24 02:06:22;;;;;;;18.98;4.53;;;;;;;;;;5005439;28;88944;-68
2024/01/24 02:08:49;;;;;;;1.10;1.00;;;;;;;;;;4999681;28;88596;-68
2024/01/24 02:11:16;;;;;;;3.13;1.17;;;;;;;;;;5011024;28;87501;-68
2024/01/24 02:13:42;;;;;;;1.70;0.85;;;;;;;;;;5002975;28;86900;-69
2024/01/24 02:16:13;;;;;;;1.48;0.70;;;;;;;;;;5008793;28;88102;-69
2024/01/24 02:18:43;;;;;;;0.88;0.70;;;;;;;;;;4999910;28;88122;-68
2024/01/24 02:21:10;;;;;;;3.25;1.15;;;;;;;;;;5008536;28;87678;-69
2024/01/24 02:23:37;;;;;;;2.70;1.70;;;;;;;;;;5007048;28;87172;-69
2024/01/24 02:26:04;;;;;;;53.40;12.20;;;;;;;;;;5008459;28;87450;-69
2024/01/24 02:28:30;;;;;;;4.28;1.45;;;;;;;;;;5004723;28;89605;-69
2024/01/24 02:30:56;;;;;;;7.70;1.10;;;;;;;;;;5007284;28;87980;-69
2024/01/24 02:33:23;;;;;;;4.63;1.23;;;;;;;;;;5010055;28;87052;-69
2024/01/24 02:35:49;;;;;;;94.45;18.17;;;;;;;;;;5009436;28;87885;-69
2024/01/24 02:38:16;;;;;;;3.03;0.98;;;;;;;;;;4998903;28;89131;-69
2024/01/24 02:40:42;;;;;;;3.03;0.80;;;;;;;;;;5006150;28;87642;-70
2024/01/24 02:43:08;;;;;;;8.05;1.30;;;;;;;;;;5009328;28;87453;-70
2024/01/24 02:45:35;;;;;;;4.07;0.75;;;;;;;;;;5006251;28;87850;-70
2024/01/24 02:48:01;;;;;;;3.40;1.00;;;;;;;;;;5003538;28;87380;-69
2024/01/24 02:50:28;;;;;;;5.75;1.17;;;;;;;;;;5007023;28;87399;-70
2024/01/24 02:52:54;;;;;;;7.10;1.13;;;;;;;;;;5011607;28;87784;-69
2024/01/24 02:55:20;;;;;;;8.38;1.17;;;;;;;;;;5005920;28;87829;-70
2024/01/24 02:57:47;;;;;;;11.23;1.45;;;;;;;;;;5009552;28;88317;-69
2024/01/24 03:00:14;;;;;;;5.35;1.23;;;;;;;;;;5002906;28;87677;-70
2024/01/24 03:02:40;;;;;;;13.55;1.50;;;;;;;;;;5010307;28;87417;-70
2024/01/24 03:05:08;;;;;;;6.25;1.58;;;;;;;;;;5008641;28;87873;-70
2024/01/24 03:07:36;;;;;;;12.38;1.88;;;;;;;;;;5007056;28;87251;-69
2024/01/24 03:10:03;;;;;;;12.63;2.60;;;;;;;;;;5006642;28;87657;-69
2024/01/24 03:12:29;;;;;;;5.82;1.35;;;;;;;;;;5003766;28;88381;-70
2024/01/24 03:14:56;;;;;;;9.52;1.67;;;;;;;;;;5011444;28;87505;-69
2024/01/24 03:17:22;;;;;;;7.03;1.38;;;;;;;;;;5007571;28;87922;-70
2024/01/24 03:19:49;;;;;;;6.38;1.80;;;;;;;;;;5003186;28;87049;-70
2024/01/24 03:22:16;;;;;;;15.85;2.13;;;;;;;;;;5001482;28;87825;-70
2024/01/24 03:24:42;;;;;;;6.68;1.20;;;;;;;;;;5007077;28;87850;-71
2024/01/24 03:27:09;;;;;;;8.35;1.52;;;;;;;;;;5009664;28;87217;-69
2024/01/24 03:29:35;;;;;;;8.40;2.03;;;;;;;;;;5006554;28;87016;-70
2024/01/24 03:32:02;;;;;;;13.55;3.05;;;;;;;;;;5003296;28;88226;-70
2024/01/24 03:34:31;;;;;;;8.65;1.67;;;;;;;;;;5006359;28;87313;-70
2024/01/24 03:36:57;;;;;;;10.55;1.92;;;;;;;;;;5011974;28;87702;-70
2024/01/24 03:39:23;;;;;;;44.22;14.75;;;;;;;;;;5004704;28;88829;-70
2024/01/24 03:41:50;;;;;;;15.60;1.90;;;;;;;;;;5005860;28;89121;-69
2024/01/24 03:44:16;;;;;;;13.18;2.08;;;;;;;;;;5005061;28;90091;-70
2024/01/24 03:46:43;;;;;;;7.55;1.70;;;;;;;;;;5005287;28;88442;-70
2024/01/24 03:49:10;;;;;;;13.18;2.28;;;;;;;;;;5005202;28;88616;-70
2024/01/24 03:51:36;;;;;;;13.13;2.40;;;;;;;;;;5003865;28;88037;-69
2024/01/24 03:54:03;;;;;;;16.77;2.40;;;;;;;;;;5006574;28;87277;-68
2024/01/24 03:56:29;;;;;;;20.80;3.17;;;;;;;;;;5001601;28;87845;-69
2024/01/24 03:58:56;;;;;;;18.67;2.22;;;;;;;;;;5007804;28;87809;-69
2024/01/24 04:01:22;;;;;;;32.65;8.05;;;;;;;;;;5006966;28;86934;-68
2024/01/24 04:03:49;;;;;;;21.75;3.65;;;;;;;;;;5003161;28;87955;-68
2024/01/24 04:06:15;;;;;;;25.25;6.40;;;;;;;;;;5007705;28;87370;-69
2024/01/24 04:08:45;;;;;;;25.95;3.38;;;;;;;;;;5008339;28;87866;-68
2024/01/24 04:11:11;;;;;;;72.53;11.48;;;;;;;;;;5002703;28;87736;-68
2024/01/24 04:13:39;;;;;;;45.80;12.05;;;;;;;;;;5003680;28;89462;-68
2024/01/24 04:16:06;;;;;;;15.27;2.97;;;;;;;;;;5002863;28;88996;-69
2024/01/24 04:18:32;;;;;;;28.45;4.15;;;;;;;;;;5001983;28;89082;-68
2024/01/24 04:21:00;;;;;;;27.08;4.40;;;;;;;;;;5007061;28;87570;-68
2024/01/24 04:23:26;;;;;;;25.15;4.00;;;;;;;;;;4999903;28;88319;-68
2024/01/24 04:25:53;;;;;;;54.33;11.32;;;;;;;;;;5003192;28;87272;-68
2024/01/24 04:28:19;;;;;;;25.33;3.75;;;;;;;;;;5001565;28;89261;-69
2024/01/24 04:30:45;;;;;;;32.42;5.45;;;;;;;;;;5006353;28;90080;-68
2024/01/24 04:33:14;;;;;;;123.97;30.38;;;;;;;;;;5005590;28;88272;-68
2024/01/24 04:35:40;;;;;;;38.38;5.25;;;;;;;;;;5004344;28;89330;-68
2024/01/24 04:38:07;;;;;;;33.90;5.35;;;;;;;;;;5004159;28;90229;-68
2024/01/24 04:40:33;;;;;;;25.08;4.57;;;;;;;;;;5007418;28;89630;-68
2024/01/24 04:43:00;;;;;;;36.33;4.88;;;;;;;;;;4998551;28;88084;-68
2024/01/24 04:45:27;;;;;;;29.25;5.45;;;;;;;;;;5001409;28;89451;-69
2024/01/24 04:47:53;;;;;;;37.70;5.70;;;;;;;;;;5003380;28;89221;-68
2024/01/24 04:50:21;;;;;;;44.58;6.15;;;;;;;;;;5003437;28;89111;-69
2024/01/24 04:52:48;;;;;;;40.20;5.38;;;;;;;;;;4996613;28;89870;-68
2024/01/24 04:55:14;;;;;;;42.22;7.15;;;;;;;;;;5005429;28;88432;-68
2024/01/24 04:57:41;;;;;;;45.88;5.65;;;;;;;;;;5003720;28;88401;-68
2024/01/24 05:00:08;;;;;;;31.40;4.82;;;;;;;;;;5001921;28;89086;-68
2024/01/24 05:02:35;;;;;;;46.38;8.88;;;;;;;;;;5008178;28;89708;-68
2024/01/24 05:05:03;;;;;;;33.15;5.05;;;;;;;;;;5004000;28;89571;-67
2024/01/24 05:07:29;;;;;;;35.83;6.65;;;;;;;;;;4996227;28;88990;-68
2024/01/24 05:09:55;;;;;;;48.25;7.53;;;;;;;;;;5003259;28;89400;-69
2024/01/24 05:12:22;;;;;;;44.33;6.90;;;;;;;;;;5007694;28;88864;-69
2024/01/24 05:14:48;;;;;;;35.13;5.22;;;;;;;;;;5002258;28;88987;-68
2024/01/24 05:17:15;;;;;;;45.92;6.63;;;;;;;;;;5005396;28;88103;-68
2024/01/24 05:19:41;;;;;;;39.70;6.20;;;;;;;;;;5005950;28;88861;-68
2024/01/24 05:22:08;;;;;;;35.05;6.35;;;;;;;;;;5005875;28;89029;-67
2024/01/24 05:24:34;;;;;;;42.22;5.63;;;;;;;;;;5012966;28;88008;-68
2024/01/24 05:27:01;;;;;;;39.30;5.90;;;;;;;;;;5002534;28;89952;-68
2024/01/24 05:29:27;;;;;;;37.08;6.32;;;;;;;;;;5008788;28;88017;-68
2024/01/24 05:31:53;;;;;;;42.03;6.20;;;;;;;;;;5002495;28;88793;-68
2024/01/24 05:34:20;;;;;;;31.65;6.03;;;;;;;;;;5009854;28;90282;-68
2024/01/24 05:36:46;;;;;;;38.35;6.15;;;;;;;;;;5006457;28;88137;-69
2024/01/24 05:39:15;;;;;;;51.08;7.00;;;;;;;;;;5007421;28;89150;-68
2024/01/24 05:41:43;;;;;;;51.53;6.75;;;;;;;;;;5004124;28;89348;-68
2024/01/24 05:44:10;;;;;;;58.03;11.95;;;;;;;;;;5006761;28;88716;-69
2024/01/24 05:46:36;;;;;;;48.88;7.03;;;;;;;;;;5009666;28;89521;-68
2024/01/24 05:49:02;;;;;;;48.30;7.00;;;;;;;;;;5007605;28;90400;-69
2024/01/24 05:51:29;;;;;;;54.92;7.20;;;;;;;;;;5009137;28;88787;-68
2024/01/24 05:53:55;;;;;;;43.15;8.65;;;;;;;;;;5006994;28;89269;-72
2024/01/24 05:56:22;;;;;;;57.13;7.70;;;;;;;;;;5008072;28;88168;-68
2024/01/24 05:58:48;;;;;;;41.60;6.55;;;;;;;;;;5008325;28;88650;-68
2024/01/24 06:01:15;;;;;;;45.42;7.13;;;;;;;;;;5007353;28;89267;-68
2024/01/24 06:03:41;;;;;;;48.60;6.80;;;;;;;;;;5007210;28;88179;-68
2024/01/24 06:06:08;;;;;;;53.00;8.88;;;;;;;;;;5005213;28;88671;-68
2024/01/24 06:08:35;;;;;;;40.90;7.45;;;;;;;;;;5009478;28;88612;-68
2024/01/24 06:11:01;;;;;;;53.95;8.88;;;;;;;;;;5005985;28;88459;-68
2024/01/24 06:13:28;;;;;;;36.42;6.68;;;;;;;;;;5007768;28;89243;-67
2024/01/24 06:15:54;;;;;;;56.42;11.73;;;;;;;;;;5002856;28;88924;-68
2024/01/24 06:18:21;;;;;;;48.10;7.45;;;;;;;;;;5000737;28;89868;-68
2024/01/24 06:20:48;;;;;;;43.53;6.45;;;;;;;;;;5005875;28;89166;-68
2024/01/24 06:23:15;;;;;;;51.70;7.82;;;;;;;;;;5035472;27;88137;-68
2024/01/24 06:25:42;;;;;;;58.05;9.05;;;;;;;;;;5006219;28;90265;-68
2024/01/24 06:28:09;;;;;;;53.78;8.30;;;;;;;;;;5005057;28;89099;-68
2024/01/24 06:30:35;;;;;;;47.25;8.13;;;;;;;;;;5010528;28;88169;-68
2024/01/24 06:33:01;;;;;;;51.63;9.70;;;;;;;;;;5010111;28;89464;-67
2024/01/24 06:35:29;;;;;;;51.22;7.82;;;;;;;;;;5008463;28;88015;-68
2024/01/24 06:37:55;;;;;;;49.65;8.05;;;;;;;;;;5007307;28;89116;-68
2024/01/24 06:40:22;;;;;;;64.90;10.40;;;;;;;;;;5004458;28;89999;-68
2024/01/24 06:42:48;;;;;;;46.90;8.65;;;;;;;;;;5007354;28;89015;-68
2024/01/24 06:45:15;;;;;;;53.45;9.10;;;;;;;;;;5005808;28;88245;-68
2024/01/24 06:47:43;;;;;;;50.33;7.43;;;;;;;;;;5005318;28;89480;-68
2024/01/24 06:50:13;;;;;;;44.47;6.93;;;;;;;;;;5010637;28;89227;-68
2024/01/24 06:52:40;;;;;;;48.97;7.90;;;;;;;;;;5006472;28;89267;-68
2024/01/24 06:55:08;;;;;;;56.45;7.88;;;;;;;;;;5003313;28;88102;-68
2024/01/24 06:57:35;;;;;;;51.80;8.20;;;;;;;;;;5004555;28;88661;-68
2024/01/24 07:00:04;;;;;;;52.90;8.57;;;;;;;;;;5008011;28;89338;-68
2024/01/24 07:02:31;;;;;;;72.88;11.82;;;;;;;;;;5003292;28;89011;-68
2024/01/24 07:04:57;;;;;;;46.63;7.72;;;;;;;;;;5004487;28;89493;-68
2024/01/24 07:07:25;;;;;;;43.63;6.68;;;;;;;;;;5007131;28;89449;-68
2024/01/24 07:09:51;;;;;;;54.25;8.63;;;;;;;;;;5001363;28;87991;-69
2024/01/24 07:12:20;;;;;;;43.58;7.40;;;;;;;;;;5010831;28;88821;-68
2024/01/24 07:14:48;;;;;;;53.25;7.65;;;;;;;;;;5000170;28;88196;-68
2024/01/24 07:17:18;;;;;;;47.53;8.27;;;;;;;;;;5009670;28;91769;-68
2024/01/24 07:19:45;;;;;;;51.55;8.02;;;;;;;;;;5006914;28;87902;-68
2024/01/24 07:22:11;;;;;;;48.92;7.80;;;;;;;;;;5005742;28;88055;-70
2024/01/24 07:24:37;;;;;;;47.03;7.68;;;;;;;;;;5005788;28;88094;-70
2024/01/24 07:27:04;;;;;;;56.55;8.40;;;;;;;;;;5001768;28;89010;-69
2024/01/24 07:29:31;;;;;;;49.53;7.78;;;;;;;;;;5005928;28;88822;-70
2024/01/24 07:31:57;;;;;;;55.67;7.63;;;;;;;;;;4999530;28;89559;-70
2024/01/24 07:34:24;;;;;;;44.97;7.13;;;;;;;;;;5008872;28;88968;-69
2024/01/24 07:36:50;;;;;;;70.28;7.93;;;;;;;;;;5006466;28;89135;-70
2024/01/24 07:39:17;;;;;;;54.30;7.95;;;;;;;;;;4996106;28;88917;-70
2024/01/24 07:41:43;;;;;;;48.08;8.30;;;;;;;;;;5002698;28;89515;-74
2024/01/24 07:44:10;;;;;;;46.13;7.88;;;;;;;;;;5000456;28;88956;-75
2024/01/24 07:46:40;;;;;;;49.85;7.75;;;;;;;;;;5002607;28;88006;-74
2024/01/24 07:49:08;;;;;;;52.22;8.35;;;;;;;;;;5006478;28;88156;-72
2024/01/24 07:51:35;;;;;;;55.72;8.57;;;;;;;;;;5004729;28;89510;-74
2024/01/24 07:54:02;;;;;;;49.72;7.90;;;;;;;;;;5003668;28;89799;-74
2024/01/24 07:56:30;;;;;;;54.55;8.32;;;;;;;;;;5010902;28;88083;-73
2024/01/24 07:58:56;;;;;;;55.70;8.75;;;;;;;;;;5000521;28;88813;-74
2024/01/24 08:01:23;;;;;;;55.72;8.90;;;;;;;;;;5023161;27;91224;-73
2024/01/24 08:03:50;;;;;;;58.15;8.55;;;;;;;;;;5006635;28;88601;-74
2024/01/24 08:06:17;;;;;;;50.67;8.82;;;;;;;;;;5002763;28;88103;-73
2024/01/24 08:08:44;;;;;;;44.85;7.35;;;;;;;;;;5003217;28;88071;-73
2024/01/24 08:11:10;;;;;;;58.35;9.00;;;;;;;;;;5005826;28;89061;-74
2024/01/24 08:13:37;;;;;;;38.75;6.53;;;;;;;;;;5005945;28;88984;-74
2024/01/24 08:16:03;;;;;;;49.65;8.43;;;;;;;;;;4998277;28;88294;-74
2024/01/24 08:18:30;;;;;;;49.70;8.02;;;;;;;;;;5004249;28;88779;-73
2024/01/24 08:20:57;;;;;;;50.90;7.57;;;;;;;;;;5007477;28;88276;-74
2024/01/24 08:23:24;;;;;;;43.03;7.65;;;;;;;;;;5001829;28;88796;-73
2024/01/24 08:26:03;;;;;;;42.40;8.70;;;;;;;;;;4994566;28;90102;-73
2024/01/24 08:28:29;;;;;;;37.95;6.97;;;;;;;;;;4999056;28;88327;-73
2024/01/24 08:30:56;;;;;;;51.92;8.05;;;;;;;;;;5000422;28;88886;-73
2024/01/24 08:33:22;;;;;;;42.92;8.45;;;;;;;;;;5001562;28;89033;-73
2024/01/24 08:35:49;;;;;;;46.15;8.20;;;;;;;;;;5000783;28;87838;-74
2024/01/24 08:38:15;;;;;;;52.85;8.60;;;;;;;;;;5003547;28;88225;-73
2024/01/24 08:40:41;;;;;;;55.28;9.35;;;;;;;;;;5005408;28;89508;-74
2024/01/24 08:43:08;;;;;;;43.75;8.15;;;;;;;;;;5001952;28;88986;-74
2024/01/24 08:45:35;;;;;;;46.90;8.20;;;;;;;;;;5002126;28;90274;-73
2024/01/24 08:48:01;;;;;;;49.70;8.05;;;;;;;;;;5008676;28;88366;-73
2024/01/24 08:50:28;;;;;;;54.47;7.55;;;;;;;;;;5004368;28;88757;-72
2024/01/24 08:52:54;;;;;;;57.63;9.27;;;;;;;;;;5038286;27;89336;-72
2024/01/24 08:55:21;;;;;;;43.58;7.85;;;;;;;;;;5007005;28;88873;-72
2024/01/24 08:57:48;;;;;;;59.05;8.85;;;;;;;;;;4999516;28;89761;-73
2024/01/24 09:00:16;;;;;;;55.80;7.68;;;;;;;;;;5010205;28;88092;-72
2024/01/24 09:02:43;;;;;;;46.90;7.95;;;;;;;;;;5001207;28;88098;-73
2024/01/24 09:05:09;;;;;;;43.05;7.57;;;;;;;;;;5006460;28;88093;-74
2024/01/24 09:07:36;;;;;;;49.05;8.38;;;;;;;;;;5005516;28;88861;-74
2024/01/24 09:10:03;;;;;;;50.08;8.20;;;;;;;;;;5004615;28;88250;-73
2024/01/24 09:12:30;;;;;;;45.03;6.75;;;;;;;;;;5006842;28;90920;-73
2024/01/24 09:14:57;;;;;;;54.35;8.90;;;;;;;;;;4998568;28;88371;-73
2024/01/24 09:17:24;;;;;;;46.92;7.80;;;;;;;;;;5000638;28;90958;-73
2024/01/24 09:19:50;;;;;;;51.33;7.78;;;;;;;;;;5003971;28;89268;-73
2024/01/24 09:22:17;;;;;;;41.65;7.63;;;;;;;;;;5008901;28;88133;-73
2024/01/24 09:24:43;;;;;;;44.58;8.07;;;;;;;;;;4996754;28;91946;-73
2024/01/24 09:27:10;;;;;;;44.22;7.78;;;;;;;;;;4998279;28;88559;-75
2024/01/24 09:29:36;;;;;;;43.10;7.32;;;;;;;;;;5002007;28;89422;-73
2024/01/24 09:32:03;;;;;;;41.90;7.78;;;;;;;;;;5001282;28;90200;-73
2024/01/24 09:34:29;;;;;;;47.22;7.60;;;;;;;;;;5006743;28;87958;-73
2024/01/24 09:36:56;;;;;;;38.67;7.38;;;;;;;;;;5004562;28;89880;-73
2024/01/24 09:39:25;;;;;;;50.45;8.38;;;;;;;;;;5004815;28;89243;-74
2024/01/24 09:41:52;;;;;;;37.13;6.90;;;;;;;;;;5005745;28;88206;-73
2024/01/24 09:44:19;;;;;;;45.15;7.05;;;;;;;;;;5009918;28;88906;-73
2024/01/24 09:46:47;;;;;;;41.38;8.02;;;;;;;;;;5003210;28;88111;-73
2024/01/24 09:49:15;;;;;;;49.40;7.53;;;;;;;;;;5007029;28;88869;-74
2024/01/24 09:51:42;;;;;;;39.72;8.32;;;;;;;;;;5006722;28;88173;-73
2024/01/24 09:54:09;;;;;;;46.63;7.13;;;;;;;;;;5004392;28;88093;-74
2024/01/24 09:56:36;;;;;;;41.17;7.30;;;;;;;;;;5004995;28;89815;-73
2024/01/24 09:59:03;;;;;;;36.47;6.85;;;;;;;;;;5009051;28;89990;-73
2024/01/24 10:01:31;;;;;;;40.35;7.35;;;;;;;;;;5001137;28;88020;-73
2024/01/24 10:03:59;;;;;;;45.63;6.43;;;;;;;;;;5006852;28;89336;-73
2024/01/24 10:06:27;;;;;;;34.20;6.70;;;;;;;;;;5007694;28;90424;-74
2024/01/24 10:08:54;;;;;;;36.65;7.43;;;;;;;;;;5005824;28;89686;-73
2024/01/24 10:11:20;;;;;;;42.47;7.00;;;;;;;;;;5007446;28;89030;-73
2024/01/24 10:13:47;;;;;;;41.47;6.30;;;;;;;;;;5007564;28;89093;-74
2024/01/24 10:16:13;;;;;;;34.10;6.47;;;;;;;;;;5006935;28;87862;-73
2024/01/24 10:18:41;;;;;;;32.45;6.95;;;;;;;;;;5007522;28;89061;-73
2024/01/24 10:21:08;;;;;;;36.88;6.97;;;;;;;;;;5004734;28;88820;-73
2024/01/24 10:23:34;;;;;;;35.75;8.32;;;;;;;;;;5006661;28;88566;-74
2024/01/24 10:26:00;;;;;;;41.58;7.15;;;;;;;;;;5000004;28;89686;-73
2024/01/24 10:28:27;;;;;;;42.92;7.88;;;;;;;;;;5008686;28;88340;-73
2024/01/24 10:30:54;;;;;;;39.17;7.40;;;;;;;;;;5007644;28;90114;-73
2024/01/24 10:33:22;;;;;;;39.30;7.63;;;;;;;;;;5000276;28;88070;-73
2024/01/24 10:35:49;;;;;;;39.92;7.53;;;;;;;;;;5004241;28;88916;-74
2024/01/24 10:38:20;;;;;;;40.72;7.53;;;;;;;;;;5007310;28;88371;-73
2024/01/24 10:40:48;;;;;;;42.00;8.70;;;;;;;;;;5003593;28;88391;-73
2024/01/24 10:43:17;;;;;;;34.03;6.57;;;;;;;;;;5004172;28;88801;-73
2024/01/24 10:45:44;;;;;;;32.30;7.45;;;;;;;;;;5003484;28;89900;-74
2024/01/24 10:48:10;;;;;;;32.70;6.38;;;;;;;;;;5002724;28;88269;-73
2024/01/24 10:50:37;;;;;;;41.97;7.93;;;;;;;;;;5008592;28;89179;-73
2024/01/24 10:53:05;;;;;;;39.13;6.95;;;;;;;;;;5008119;28;88022;-73
2024/01/24 10:55:33;;;;;;;40.45;7.68;;;;;;;;;;5001645;28;88908;-73
2024/01/24 10:57:59;;;;;;;37.40;7.28;;;;;;;;;;5005896;28;88828;-73
2024/01/24 11:00:28;;;;;;;39.45;7.32;;;;;;;;;;5005289;28;88597;-73
2024/01/24 11:02:55;;;;;;;33.55;6.93;;;;;;;;;;5005381;28;89134;-74
2024/01/24 11:05:25;;;;;;;38.70;7.10;;;;;;;;;;5005104;28;88986;-74
2024/01/24 11:07:55;;;;;;;35.03;8.07;;;;;;;;;;4998323;28;88277;-74
2024/01/24 11:10:27;;;;;;;31.45;6.45;;;;;;;;;;5009588;28;89244;-73
2024/01/24 11:12:53;;;;;;;44.38;7.82;;;;;;;;;;5006180;28;88910;-73
2024/01/24 11:15:22;;;;;;;34.53;6.88;;;;;;;;;;5004799;28;88815;-73
2024/01/24 11:18:07;;;;;;;35.95;7.45;;;;;;;;;;5000527;28;88129;-73
2024/01/24 11:20:44;;;;;;;34.58;7.45;;;;;;;;;;4998560;28;88252;-72
2024/01/24 11:23:30;;;;;;;31.90;6.88;;;;;;;;;;5003654;28;90183;-72
2024/01/24 11:25:57;;;;;;;30.92;6.43;;;;;;;;;;5004956;28;89201;-74
2024/01/24 11:28:24;;;;;;;35.65;7.35;;;;;;;;;;5006003;28;87809;-74
2024/01/24 11:30:51;;;;;;;40.90;7.70;;;;;;;;;;5004638;28;88155;-71
2024/01/24 11:33:18;;;;;;;36.35;7.60;;;;;;;;;;5000497;28;89250;-72
2024/01/24 11:35:46;;;;;;;41.55;7.50;;;;;;;;;;4995784;28;88794;-72
2024/01/24 11:38:16;;;;;;;46.53;8.40;;;;;;;;;;4997679;28;89508;-74
2024/01/24 11:41:08;;;;;;;41.50;7.15;;;;;;;;;;5001260;28;88092;-76
2024/01/24 11:43:34;;;;;;;28.10;6.05;;;;;;;;;;5003853;28;88685;-74
2024/01/24 11:46:06;;;;;;;29.95;6.63;;;;;;;;;;5001479;28;89092;-72
2024/01/24 11:48:36;;;;;;;42.57;6.83;;;;;;;;;;5002934;28;88114;-73
2024/01/24 11:51:04;;;;;;;32.85;6.45;;;;;;;;;;5006199;28;88850;-73
2024/01/24 11:53:30;;;;;;;41.83;7.03;;;;;;;;;;5003633;28;89687;-71
2024/01/24 11:55:57;;;;;;;34.42;7.07;;;;;;;;;;5006433;28;88121;-71
2024/01/24 11:58:26;;;;;;;27.15;5.82;;;;;;;;;;4999810;28;88995;-71
2024/01/24 12:01:02;;;;;;;37.50;6.93;;;;;;;;;;5002160;28;88919;-71
2024/01/24 12:03:29;;;;;;;27.05;5.45;;;;;;;;;;5005110;28;88210;-71
2024/01/24 12:05:55;;;;;;;37.05;6.68;;;;;;;;;;5001911;28;89003;-71
2024/01/24 12:08:22;;;;;;;41.38;7.72;;;;;;;;;;5005697;28;88084;-71
2024/01/24 12:10:49;;;;;;;37.88;6.32;;;;;;;;;;4999919;28;89319;-71
2024/01/24 12:13:17;;;;;;;38.08;5.88;;;;;;;;;;4999853;28;88058;-71
2024/01/24 12:15:44;;;;;;;35.08;6.40;;;;;;;;;;5003776;28;90388;-71
2024/01/24 12:18:12;;;;;;;37.03;6.07;;;;;;;;;;5010188;28;88793;-72
2024/01/24 12:20:44;;;;;;;49.55;6.63;;;;;;;;;;4996126;28;88120;-72
2024/01/24 12:23:14;;;;;;;39.08;5.72;;;;;;;;;;4999531;28;88974;-71
2024/01/24 12:25:40;;;;;;;33.92;5.82;;;;;;;;;;4997744;28;89617;-71
2024/01/24 12:28:08;;;;;;;34.63;5.88;;;;;;;;;;4999510;28;88341;-71
2024/01/24 12:30:35;;;;;;;42.75;6.30;;;;;;;;;;5006038;28;88823;-72
2024/01/24 12:33:02;;;;;;;31.23;5.93;;;;;;;;;;5001803;28;89613;-71
2024/01/24 12:35:29;;;;;;;38.72;7.38;;;;;;;;;;5005447;28;88327;-71
2024/01/24 12:37:59;;;;;;;34.92;6.68;;;;;;;;;;5005431;28;88688;-72
2024/01/24 12:40:29;;;;;;;35.73;6.03;;;;;;;;;;5007745;28;89555;-71
2024/01/24 12:42:56;;;;;;;38.35;6.25;;;;;;;;;;5003973;28;88807;-71
2024/01/24 12:45:24;;;;;;;35.38;6.82;;;;;;;;;;5001459;28;88989;-71
2024/01/24 12:47:51;;;;;;;42.38;6.70;;;;;;;;;;4994776;28;88228;-71
2024/01/24 12:50:18;;;;;;;33.85;6.53;;;;;;;;;;5003046;28;88971;-71
2024/01/24 12:52:47;;;;;;;40.03;5.60;;;;;;;;;;5005036;28;89111;-71
2024/01/24 12:55:19;;;;;;;39.58;6.63;;;;;;;;;;4997709;28;88063;-71
2024/01/24 12:57:46;;;;;;;46.63;6.22;;;;;;;;;;5003747;28;89218;-71
2024/01/24 13:00:15;;;;;;;30.13;6.97;;;;;;;;;;5001415;28;88975;-71
2024/01/24 13:02:41;;;;;;;42.80;6.70;;;;;;;;;;5001750;28;87977;-71
2024/01/24 13:05:08;;;;;;;27.88;5.68;;;;;;;;;;5007923;28;89449;-72
2024/01/24 13:07:36;;;;;;;29.55;4.93;;;;;;;;;;4999457;28;89963;-71
2024/01/24 13:10:04;;;;;;;41.92;6.47;;;;;;;;;;5005193;28;88354;-71
2024/01/24 13:12:33;;;;;;;37.60;6.07;;;;;;;;;;4999614;28;88895;-72
2024/01/24 13:15:00;;;;;;;33.80;5.38;;;;;;;;;;5003662;28;91140;-75
2024/01/24 13:17:26;;;;;;;40.40;7.20;;;;;;;;;;5004571;28;89392;-74
2024/01/24 13:19:53;;;;;;;39.90;6.20;;;;;;;;;;5006277;28;88764;-74
2024/01/24 13:22:20;;;;;;;39.78;6.72;;;;;;;;;;5006578;28;90077;-74
2024/01/24 13:24:46;;;;;;;40.53;6.55;;;;;;;;;;4998673;28;89952;-74
2024/01/24 13:27:19;;;;;;;35.67;7.03;;;;;;;;;;4999735;28;88604;-74
2024/01/24 13:29:46;;;;;;;34.08;5.97;;;;;;;;;;4998729;28;87995;-74
2024/01/24 13:32:12;;;;;;;36.58;5.65;;;;;;;;;;5004149;28;88297;-73
2024/01/24 13:34:39;;;;;;;32.75;5.18;;;;;;;;;;5007195;28;88920;-74
2024/01/24 13:37:06;;;;;;;29.77;5.88;;;;;;;;;;5006582;28;88812;-72
2024/01/24 13:39:32;;;;;;;33.63;5.63;;;;;;;;;;5006892;28;90127;-73
2024/01/24 13:42:00;;;;;;;31.35;5.60;;;;;;;;;;5000448;28;88589;-76
2024/01/24 13:44:26;;;;;;;47.92;7.88;;;;;;;;;;5004352;28;88745;-76
2024/01/24 13:46:53;;;;;;;37.85;6.53;;;;;;;;;;5005008;28;90533;-75
2024/01/24 13:49:19;;;;;;;23.77;5.65;;;;;;;;;;5038321;27;88803;-76
2024/01/24 13:51:46;;;;;;;31.90;5.28;;;;;;;;;;5002839;28;88669;-73
2024/01/24 13:54:12;;;;;;;33.42;5.03;;;;;;;;;;5008999;28;88866;-73
2024/01/24 13:56:39;;;;;;;36.05;5.70;;;;;;;;;;5005887;28;89149;-74
2024/01/24 13:59:05;;;;;;;42.80;6.38;;;;;;;;;;5001938;28;89710;-75
2024/01/24 14:01:31;;;;;;;36.67;5.60;;;;;;;;;;5000657;28;88752;-75
2024/01/24 14:04:05;;;;;;;37.30;7.00;;;;;;;;;;5003813;28;89122;-75
2024/01/24 14:06:32;;;;;;;36.75;5.85;;;;;;;;;;5008589;28;89177;-76
2024/01/24 14:08:58;;;;;;;43.05;6.22;;;;;;;;;;5005546;28;88452;-75
2024/01/24 14:11:25;;;;;;;37.13;6.50;;;;;;;;;;5002953;28;89343;-75
2024/01/24 14:13:51;;;;;;;38.00;5.72;;;;;;;;;;5008373;28;88371;-75
2024/01/24 14:16:17;;;;;;;32.58;4.97;;;;;;;;;;5001564;28;88801;-75
2024/01/24 14:18:44;;;;;;;26.63;5.38;;;;;;;;;;5005581;28;88719;-75
2024/01/24 14:21:11;;;;;;;39.22;6.20;;;;;;;;;;5003506;28;87854;-75
2024/01/24 14:23:39;;;;;;;53.38;6.95;;;;;;;;;;4998278;28;88580;-75
2024/01/24 14:26:06;;;;;;;39.00;5.45;;;;;;;;;;5009126;28;90274;-75
2024/01/24 14:28:34;;;;;;;35.63;5.95;;;;;;;;;;5007155;28;88865;-75
2024/01/24 14:31:00;;;;;;;31.00;5.38;;;;;;;;;;5003083;28;89210;-75